createdAt,value
2022-12-01T00:01:11.192Z,47.08
2022-12-01T00:03:39.028Z,45.90
2022-12-01T00:06:16.915Z,40.00
2022-12-01T00:11:12.008Z,40.53
2022-12-01T00:13:39.221Z,50.10
2022-12-01T00:16:14.148Z,51.97
2022-12-01T00:18:41.711Z,54.40
2022-12-01T00:21:19.584Z,52.78
2022-12-01T00:23:48.923Z,46.25
2022-12-01T00:26:17.683Z,48.88
2022-12-01T00:28:48.165Z,46.22
2022-12-01T00:31:15.403Z,44.58
2022-12-01T00:33:42.559Z,54.43
2022-12-01T00:36:09.925Z,46.92
2022-12-01T00:38:37.284Z,48.22
2022-12-01T00:41:04.901Z,47.40
2022-12-01T00:43:32.381Z,52.58
2022-12-01T00:45:59.676Z,53.92
2022-12-01T00:48:27.096Z,49.78
2022-12-01T00:50:55.112Z,52.80
2022-12-01T00:53:23.823Z,52.38
2022-12-01T00:55:51.366Z,52.83
2022-12-01T00:58:18.421Z,54.92
2022-12-01T01:00:45.501Z,40.63
2022-12-01T01:03:12.651Z,49.92
2022-12-01T01:05:41.597Z,47.35
2022-12-01T01:08:13.954Z,47.78
2022-12-01T01:10:42.758Z,40.90
2022-12-01T01:13:10.072Z,44.65
2022-12-01T01:15:37.520Z,43.45
2022-12-01T01:18:05.614Z,40.15
2022-12-01T01:20:33.600Z,45.53
2022-12-01T01:23:00.816Z,39.45
2022-12-01T01:25:27.971Z,45.83
2022-12-01T01:27:55.473Z,42.63
2022-12-01T01:30:22.569Z,58.88
2022-12-01T01:32:49.672Z,55.92
2022-12-01T01:35:16.815Z,50.70
2022-12-01T01:37:43.895Z,53.10
2022-12-01T01:40:11.481Z,50.72
2022-12-01T01:42:38.616Z,49.20
2022-12-01T01:45:26.157Z,67.97
2022-12-01T01:47:55.488Z,57.28
2022-12-01T01:50:25.991Z,48.42
2022-12-01T01:52:59.151Z,61.92
2022-12-01T01:55:27.236Z,54.00
2022-12-01T02:00:21.996Z,53.00
2022-12-01T02:02:50.587Z,42.50
2022-12-01T02:05:17.676Z,47.45
2022-12-01T02:07:46.344Z,57.97
2022-12-01T02:10:16.061Z,59.08
2022-12-01T02:12:55.103Z,47.50
2022-12-01T02:15:36.161Z,43.20
2022-12-01T02:18:25.847Z,54.08
2022-12-01T02:21:19.211Z,47.75
2022-12-01T02:24:20.240Z,47.22
2022-12-01T02:26:56.813Z,37.55
2022-12-01T02:29:55.253Z,44.22
2022-12-01T02:32:25.272Z,49.00
2022-12-01T02:35:13.128Z,52.45
2022-12-01T02:40:26.997Z,39.58
2022-12-01T02:43:06.122Z,46.33
2022-12-01T02:45:45.403Z,51.50
2022-12-01T02:48:20.654Z,47.13
2022-12-01T02:50:49.410Z,54.40
2022-12-01T02:53:18.843Z,42.88
2022-12-01T02:55:57.841Z,46.72
2022-12-01T02:58:25.178Z,50.33
2022-12-01T03:01:17.940Z,64.50
2022-12-01T03:03:45.053Z,54.55
2022-12-01T03:06:25.454Z,52.88
2022-12-01T03:09:18.497Z,77.72
2022-12-01T03:12:22.851Z,47.78
2022-12-01T03:15:19.267Z,59.00
2022-12-01T03:18:13.543Z,43.50
2022-12-01T03:21:08.302Z,66.55
2022-12-01T03:23:41.483Z,52.72
2022-12-01T03:26:13.072Z,69.55
2022-12-01T03:28:46.605Z,44.63
2022-12-01T03:31:19.089Z,55.08
2022-12-01T03:34:04.037Z,58.35
2022-12-01T03:36:37.893Z,48.65
2022-12-01T03:39:10.947Z,55.55
2022-12-01T03:41:43.925Z,54.40
2022-12-01T03:44:19.124Z,72.38
2022-12-01T03:47:07.448Z,51.25
2022-12-01T03:49:36.005Z,53.08
2022-12-01T03:52:24.234Z,40.85
2022-12-01T03:55:27.614Z,47.88
2022-12-01T03:58:17.997Z,49.53
2022-12-01T04:00:46.564Z,47.00
2022-12-01T04:03:18.897Z,46.97
2022-12-01T04:05:46.719Z,48.25
2022-12-01T04:08:14.040Z,42.53
2022-12-01T04:10:41.184Z,41.28
2022-12-01T04:13:08.462Z,46.58
2022-12-01T04:15:35.440Z,42.40
2022-12-01T04:18:02.501Z,41.13
2022-12-01T04:20:29.737Z,58.83
2022-12-01T04:22:56.872Z,41.35
2022-12-01T04:25:23.985Z,55.27
2022-12-01T04:27:51.102Z,47.60
2022-12-01T04:30:18.180Z,44.90
2022-12-01T04:32:45.500Z,43.05
2022-12-01T04:35:13.053Z,40.20
2022-12-01T04:37:40.352Z,41.60
2022-12-01T04:40:08.678Z,47.80
2022-12-01T04:42:35.880Z,46.17
2022-12-01T04:45:03.764Z,48.50
2022-12-01T04:47:30.905Z,45.28
2022-12-01T04:49:58.132Z,42.63
2022-12-01T04:52:26.089Z,52.97
2022-12-01T04:54:54.480Z,41.15
2022-12-01T04:57:21.619Z,43.80
2022-12-01T04:59:48.899Z,45.28
2022-12-01T05:02:16.317Z,45.72
2022-12-01T05:04:44.115Z,43.93
2022-12-01T05:07:11.240Z,46.58
2022-12-01T05:09:38.453Z,45.83
2022-12-01T05:12:05.651Z,35.67
2022-12-01T05:14:32.825Z,38.97
2022-12-01T05:17:00.088Z,42.97
2022-12-01T05:19:27.280Z,40.72
2022-12-01T05:21:54.331Z,41.07
2022-12-01T05:24:22.107Z,37.67
2022-12-01T05:26:49.357Z,41.10
2022-12-01T05:29:16.481Z,48.03
2022-12-01T05:31:45.367Z,44.07
2022-12-01T05:34:12.589Z,44.05
2022-12-01T05:36:39.643Z,39.95
2022-12-01T05:39:06.769Z,48.05
2022-12-01T05:41:34.012Z,41.60
2022-12-01T05:44:01.274Z,46.20
2022-12-01T05:46:28.319Z,43.22
2022-12-01T05:48:55.359Z,43.38
2022-12-01T05:51:22.536Z,41.33
2022-12-01T05:53:49.646Z,40.53
2022-12-01T05:56:16.755Z,40.67
2022-12-01T05:58:43.921Z,33.85
2022-12-01T06:01:11.004Z,38.08
2022-12-01T06:03:38.191Z,42.27
2022-12-01T06:06:05.376Z,38.85
2022-12-01T06:08:32.638Z,39.33
2022-12-01T06:11:00.138Z,38.95
2022-12-01T06:13:27.393Z,36.58
2022-12-01T06:16:02.345Z,39.47
2022-12-01T06:18:34.550Z,41.00
2022-12-01T06:21:02.106Z,40.30
2022-12-01T06:23:30.785Z,42.70
2022-12-01T06:25:58.839Z,44.63
2022-12-01T06:28:26.009Z,43.78
2022-12-01T06:30:55.497Z,34.33
2022-12-01T06:33:25.116Z,38.28
2022-12-01T06:36:02.710Z,36.17
2022-12-01T06:38:34.881Z,41.30
2022-12-01T06:41:02.250Z,37.42
2022-12-01T06:43:29.783Z,42.85
2022-12-01T06:46:01.561Z,33.15
2022-12-01T06:48:30.636Z,39.28
2022-12-01T06:53:25.442Z,39.15
2022-12-01T06:55:52.883Z,31.55
2022-12-01T06:58:20.099Z,37.42
2022-12-01T07:00:51.875Z,37.40
2022-12-01T07:03:19.455Z,29.98
2022-12-01T07:06:01.309Z,32.20
2022-12-01T07:08:30.073Z,34.80
2022-12-01T07:11:02.412Z,41.40
2022-12-01T07:13:33.286Z,37.33
2022-12-01T07:16:03.182Z,30.40
2022-12-01T07:18:30.879Z,36.65
2022-12-01T07:21:02.368Z,40.03
2022-12-01T07:23:30.194Z,38.55
2022-12-01T07:26:06.978Z,36.13
2022-12-01T07:28:34.119Z,38.30
2022-12-01T07:31:06.014Z,41.58
2022-12-01T07:33:33.386Z,38.78
2022-12-01T07:36:00.425Z,38.37
2022-12-01T07:38:31.066Z,33.63
2022-12-01T07:41:12.450Z,35.15
2022-12-01T07:43:40.582Z,40.90
2022-12-01T07:46:08.773Z,47.15
2022-12-01T07:48:37.179Z,37.58
2022-12-01T07:51:09.147Z,35.42
2022-12-01T07:53:36.852Z,43.13
2022-12-01T07:56:08.557Z,50.10
2022-12-01T07:58:36.556Z,42.75
2022-12-01T08:01:14.967Z,32.33
2022-12-01T08:03:43.496Z,40.15
2022-12-01T08:06:10.911Z,40.88
2022-12-01T08:08:40.828Z,43.85
2022-12-01T08:11:12.430Z,38.67
2022-12-01T08:13:40.383Z,35.17
2022-12-01T08:16:09.349Z,38.88
2022-12-01T08:18:38.329Z,34.03
2022-12-01T08:21:07.124Z,33.38
2022-12-01T08:23:34.517Z,36.50
2022-12-01T08:26:02.999Z,34.15
2022-12-01T08:28:30.646Z,34.55
2022-12-01T08:30:57.992Z,37.13
2022-12-01T08:33:25.109Z,38.65
2022-12-01T08:35:52.203Z,41.38
2022-12-01T08:38:19.385Z,46.73
2022-12-01T08:40:46.551Z,44.83
2022-12-01T08:43:41.396Z,59.78
2022-12-01T08:46:01.479Z,65.80
2022-12-01T08:48:28.947Z,56.10
2022-12-01T08:51:04.438Z,52.90
2022-12-01T08:53:31.917Z,48.78
2022-12-01T08:56:05.365Z,60.22
2022-12-01T08:58:32.584Z,48.40
2022-12-01T09:01:07.853Z,35.45
2022-12-01T09:03:36.399Z,38.83
2022-12-01T09:06:09.256Z,35.15
2022-12-01T09:08:37.364Z,44.97
2022-12-01T09:11:11.468Z,45.92
2022-12-01T09:13:39.613Z,44.72
2022-12-01T09:16:13.191Z,38.08
2022-12-01T09:18:41.335Z,37.85
2022-12-01T09:23:39.800Z,37.95
2022-12-01T09:26:12.126Z,37.90
2022-12-01T09:28:40.787Z,42.53
2022-12-01T09:31:11.055Z,40.37
2022-12-01T09:33:39.375Z,43.45
2022-12-01T09:41:05.732Z,33.25
2022-12-01T09:43:41.484Z,43.22
2022-12-01T09:46:22.699Z,37.50
2022-12-01T09:48:51.448Z,31.02
2022-12-01T09:51:21.366Z,30.75
2022-12-01T09:53:55.457Z,33.53
2022-12-01T09:56:48.678Z,36.10
2022-12-01T09:59:23.340Z,41.35
2022-12-01T10:02:00.974Z,33.85
2022-12-01T10:04:39.472Z,32.70
2022-12-01T10:07:25.469Z,25.40
2022-12-01T10:09:57.476Z,33.05
2022-12-01T10:12:26.295Z,34.47
2022-12-01T10:14:59.502Z,35.08
2022-12-01T10:18:11.036Z,30.42
2022-12-01T10:20:48.934Z,31.20
2022-12-01T10:23:39.394Z,38.85
2022-12-01T10:27:02.165Z,38.97
2022-12-01T10:29:29.191Z,30.38
2022-12-01T10:32:17.061Z,30.50
2022-12-01T10:34:44.374Z,32.22
2022-12-01T10:37:21.350Z,39.17
2022-12-01T10:39:52.516Z,35.30
2022-12-01T10:42:49.746Z,30.42
2022-12-01T10:45:28.580Z,29.80
2022-12-01T10:48:12.098Z,34.45
2022-12-01T10:50:39.370Z,26.02
2022-12-01T10:53:06.733Z,30.23
2022-12-01T10:55:41.953Z,31.45
2022-12-01T10:58:16.473Z,35.95
2022-12-01T11:00:59.082Z,34.00
2022-12-01T11:03:30.275Z,42.15
2022-12-01T11:05:59.870Z,31.83
2022-12-01T11:08:45.508Z,50.22
2022-12-01T11:11:35.786Z,37.60
2022-12-01T11:14:06.596Z,39.13
2022-12-01T11:16:43.135Z,41.80
2022-12-01T11:19:27.352Z,35.28
2022-12-01T11:21:59.956Z,37.53
2022-12-01T11:24:33.269Z,38.33
2022-12-01T11:27:00.945Z,36.33
2022-12-01T11:29:35.625Z,36.75
2022-12-01T11:32:21.310Z,36.00
2022-12-01T11:35:01.154Z,31.67
2022-12-01T11:37:33.024Z,36.38
2022-12-01T11:40:27.758Z,28.58
2022-12-01T11:42:59.250Z,36.47
2022-12-01T11:45:26.291Z,37.35
2022-12-01T11:48:03.911Z,35.60
2022-12-01T11:50:35.362Z,41.97
2022-12-01T11:53:02.986Z,40.40
2022-12-01T11:55:31.419Z,43.47
2022-12-01T11:58:03.624Z,35.45
2022-12-01T12:00:52.101Z,41.15
2022-12-01T12:03:37.913Z,37.92
2022-12-01T12:06:40.025Z,34.97
2022-12-01T12:09:41.751Z,35.53
2022-12-01T12:12:59.432Z,37.83
2022-12-01T12:15:53.879Z,32.80
2022-12-01T12:19:11.957Z,26.92
2022-12-01T12:22:08.112Z,46.08
2022-12-01T12:24:43.943Z,33.47
2022-12-01T12:27:20.048Z,40.00
2022-12-01T12:30:18.814Z,29.80
2022-12-01T12:33:10.990Z,31.27
2022-12-01T12:35:44.595Z,32.15
2022-12-01T12:38:34.933Z,31.45
2022-12-01T12:41:17.961Z,26.70
2022-12-01T12:44:18.970Z,28.88
2022-12-01T12:46:46.156Z,30.23
2022-12-01T12:49:31.885Z,24.37
2022-12-01T12:52:09.080Z,29.50
2022-12-01T12:54:45.294Z,27.60
2022-12-01T12:57:29.038Z,34.92
2022-12-01T13:00:16.642Z,31.30
2022-12-01T13:02:58.096Z,26.58
2022-12-01T13:05:33.689Z,30.05
2022-12-01T13:08:12.849Z,32.25
2022-12-01T13:10:39.857Z,28.25
2022-12-01T13:13:19.870Z,28.27
2022-12-01T13:15:50.449Z,24.15
2022-12-01T13:18:28.132Z,27.70
2022-12-01T13:20:57.069Z,30.95
2022-12-01T13:23:25.777Z,35.80
2022-12-01T13:25:55.662Z,33.17
2022-12-01T13:28:37.846Z,27.30
2022-12-01T13:31:14.168Z,23.92
2022-12-01T13:34:03.754Z,29.48
2022-12-01T13:36:48.178Z,34.45
2022-12-01T13:39:20.494Z,38.17
2022-12-01T13:41:58.767Z,43.50
2022-12-01T13:44:30.120Z,46.65
2022-12-01T13:47:02.625Z,41.25
2022-12-01T13:49:45.144Z,38.92
2022-12-01T13:52:21.069Z,39.67
2022-12-01T13:55:09.134Z,42.63
2022-12-01T13:57:38.703Z,46.13
2022-12-01T14:00:25.826Z,41.58
2022-12-01T14:03:17.643Z,27.67
2022-12-01T14:05:53.995Z,36.75
2022-12-01T14:08:33.038Z,53.30
2022-12-01T14:11:23.669Z,45.55
2022-12-01T14:13:58.667Z,40.95
2022-12-01T14:16:44.895Z,39.00
2022-12-01T14:19:50.047Z,35.05
2022-12-01T14:22:34.232Z,34.65
2022-12-01T14:25:03.402Z,33.00
2022-12-01T14:27:42.260Z,32.10
2022-12-01T14:30:40.603Z,36.10
2022-12-01T14:33:41.508Z,30.13
2022-12-01T14:36:22.693Z,35.08
2022-12-01T14:38:52.551Z,32.10
2022-12-01T14:41:41.135Z,37.33
2022-12-01T14:53:48.529Z,29.33
2022-12-01T14:56:20.688Z,34.28
2022-12-01T14:59:15.066Z,33.70
2022-12-01T15:01:42.292Z,26.92
2022-12-01T15:04:09.410Z,32.75
2022-12-01T15:06:37.873Z,24.02
2022-12-01T15:12:05.046Z,30.23
2022-12-01T15:14:37.260Z,28.17
2022-12-01T15:17:06.248Z,26.30
2022-12-01T15:19:35.837Z,26.90
2022-12-01T15:22:06.581Z,27.40
2022-12-01T15:24:34.083Z,30.02
2022-12-01T15:27:04.018Z,28.58
2022-12-01T15:29:35.815Z,31.10
2022-12-01T15:32:07.420Z,25.55
2022-12-01T15:34:46.884Z,31.40
2022-12-01T15:37:16.345Z,28.95
2022-12-01T15:39:49.320Z,30.38
2022-12-01T15:42:31.749Z,33.00
2022-12-01T15:45:20.054Z,35.75
2022-12-01T15:47:49.556Z,30.30
2022-12-01T15:50:26.163Z,26.88
2022-12-01T15:52:53.406Z,31.23
2022-12-01T15:55:39.144Z,28.10
2022-12-01T15:58:09.261Z,29.02
2022-12-01T16:00:36.434Z,28.20
2022-12-01T16:03:03.874Z,25.80
2022-12-01T16:05:33.089Z,27.98
2022-12-01T16:08:18.825Z,27.98
2022-12-01T16:11:06.809Z,32.25
2022-12-01T16:13:57.304Z,29.27
2022-12-01T16:16:43.931Z,25.67
2022-12-01T16:19:11.075Z,27.50
2022-12-01T16:21:59.255Z,22.00
2022-12-01T16:24:30.142Z,24.73
2022-12-01T16:26:59.285Z,23.60
2022-12-01T16:29:28.520Z,27.45
2022-12-01T16:32:21.628Z,30.20
2022-12-01T16:34:51.280Z,26.50
2022-12-01T16:37:18.637Z,25.20
2022-12-01T16:39:45.686Z,27.53
2022-12-01T16:42:16.005Z,37.90
2022-12-01T16:44:43.759Z,23.08
2022-12-01T16:47:20.085Z,23.30
2022-12-01T16:49:47.715Z,25.35
2022-12-01T16:52:42.905Z,29.42
2022-12-01T16:55:02.257Z,23.90
2022-12-01T16:57:29.337Z,33.42
2022-12-01T16:59:56.419Z,29.95
2022-12-01T17:02:23.661Z,24.38
2022-12-01T17:04:51.036Z,22.93
2022-12-01T17:07:18.433Z,28.02
2022-12-01T17:09:45.568Z,26.13
2022-12-01T17:12:12.695Z,29.53
2022-12-01T17:14:39.764Z,21.65
2022-12-01T17:17:06.960Z,29.63
2022-12-01T17:19:34.109Z,22.27
2022-12-01T17:22:01.136Z,23.33
2022-12-01T17:24:28.403Z,29.45
2022-12-01T17:26:55.561Z,22.13
2022-12-01T17:29:22.613Z,22.10
2022-12-01T17:31:49.748Z,23.65
2022-12-01T17:34:16.806Z,21.55
2022-12-01T17:36:43.889Z,26.25
2022-12-01T17:39:11.082Z,32.13
2022-12-01T17:41:38.242Z,22.90
2022-12-01T17:44:05.733Z,24.92
2022-12-01T17:46:32.903Z,26.63
2022-12-01T17:49:01.104Z,21.58
2022-12-01T17:51:28.202Z,27.45
2022-12-01T17:53:55.359Z,22.50
2022-12-01T17:56:22.537Z,25.00
2022-12-01T17:58:49.642Z,20.58
2022-12-01T18:01:18.844Z,24.15
2022-12-01T18:03:47.944Z,25.15
2022-12-01T18:06:16.570Z,24.40
2022-12-01T18:08:43.841Z,23.83
2022-12-01T18:11:15.060Z,28.20
2022-12-01T18:13:48.021Z,27.70
2022-12-01T18:16:20.533Z,23.20
2022-12-01T18:18:48.670Z,26.95
2022-12-01T18:21:18.506Z,29.90
2022-12-01T18:23:53.529Z,20.98
2022-12-01T18:26:21.332Z,27.80
2022-12-01T18:28:54.244Z,32.85
2022-12-01T18:31:21.595Z,29.50
2022-12-01T18:33:48.778Z,43.47
2022-12-01T18:36:21.903Z,45.40
2022-12-01T18:38:49.971Z,38.88
2022-12-01T18:41:17.498Z,37.05
2022-12-01T18:43:44.994Z,31.25
2022-12-01T18:46:14.576Z,36.30
2022-12-01T18:48:55.875Z,34.17
2022-12-01T18:51:23.072Z,31.67
2022-12-01T18:53:54.163Z,29.20
2022-12-01T18:56:21.493Z,21.13
2022-12-01T18:59:04.111Z,28.47
2022-12-01T19:01:36.732Z,33.40
2022-12-01T19:04:05.651Z,32.70
2022-12-01T19:06:34.915Z,28.77
2022-12-01T19:09:04.518Z,29.80
2022-12-01T19:11:32.134Z,26.27
2022-12-01T19:13:59.356Z,31.23
2022-12-01T19:16:28.456Z,31.40
2022-12-01T19:18:55.666Z,32.28
2022-12-01T19:21:23.048Z,28.52
2022-12-01T19:23:50.364Z,32.35
2022-12-01T19:26:20.378Z,28.37
2022-12-01T19:28:48.280Z,31.42
2022-12-01T19:31:21.314Z,30.67
2022-12-01T19:33:48.450Z,35.80
2022-12-01T19:36:19.595Z,34.23
2022-12-01T19:38:47.291Z,25.77
2022-12-01T19:41:15.465Z,32.00
2022-12-01T19:46:12.626Z,29.23
2022-12-01T19:48:40.221Z,31.55
2022-12-01T19:51:07.688Z,25.95
2022-12-01T19:53:34.761Z,27.85
2022-12-01T19:56:03.385Z,28.45
2022-12-01T19:58:33.389Z,26.88
2022-12-01T20:01:09.384Z,27.90
2022-12-01T20:03:37.381Z,29.40
2022-12-01T20:06:10.395Z,29.25
2022-12-01T20:08:37.960Z,28.60
2022-12-01T20:11:06.068Z,29.35
2022-12-01T20:13:36.299Z,23.88
2022-12-01T20:16:12.264Z,27.40
2022-12-01T20:18:40.423Z,25.50
2022-12-01T20:23:37.403Z,23.38
2022-12-01T20:28:34.962Z,21.65
2022-12-01T20:31:03.172Z,33.97
2022-12-01T20:33:31.292Z,25.10
2022-12-01T20:35:58.344Z,25.30
2022-12-01T20:38:27.630Z,24.92
2022-12-01T20:40:55.404Z,22.67
2022-12-01T20:43:22.620Z,23.42
2022-12-01T20:45:49.720Z,23.77
2022-12-01T20:48:17.311Z,25.80
2022-12-01T20:50:44.779Z,30.02
2022-12-01T20:53:11.864Z,26.05
2022-12-01T20:55:39.247Z,29.98
2022-12-01T20:58:07.187Z,23.92
2022-12-01T21:00:35.699Z,28.70
2022-12-01T21:03:03.677Z,30.30
2022-12-01T21:05:30.920Z,35.03
2022-12-01T21:07:58.537Z,35.80
2022-12-01T21:10:25.963Z,40.65
2022-12-01T21:12:59.986Z,42.00
2022-12-01T21:15:29.540Z,42.47
2022-12-01T21:18:03.422Z,36.28
2022-12-01T21:20:30.474Z,31.92
2022-12-01T21:23:15.671Z,32.75
2022-12-01T21:25:43.891Z,36.60
2022-12-01T21:30:49.257Z,43.78
2022-12-01T21:33:26.687Z,33.17
2022-12-01T21:35:55.559Z,27.10
2022-12-01T21:38:23.016Z,29.55
2022-12-01T21:40:50.197Z,25.20
2022-12-01T21:43:20.985Z,24.43
2022-12-01T21:46:10.893Z,23.02
2022-12-01T21:48:38.119Z,23.58
2022-12-01T21:51:16.065Z,21.75
2022-12-01T21:53:43.141Z,21.75
2022-12-01T21:56:20.465Z,28.92
2022-12-01T21:58:48.506Z,26.80
2022-12-01T22:01:35.784Z,23.73
2022-12-01T22:04:15.130Z,22.63
2022-12-01T22:06:46.543Z,23.77
2022-12-01T22:09:34.137Z,18.38
2022-12-01T22:12:06.874Z,22.67
2022-12-01T22:14:35.915Z,21.67
2022-12-01T22:17:05.968Z,21.08
2022-12-01T22:19:41.280Z,23.35
2022-12-01T22:22:11.122Z,24.55
2022-12-01T22:24:43.485Z,23.45
2022-12-01T22:27:48.553Z,23.90
2022-12-01T22:30:23.788Z,21.40
2022-12-01T22:32:53.355Z,23.70
2022-12-01T22:35:46.181Z,22.08
2022-12-01T22:38:42.638Z,19.70
2022-12-01T22:41:13.643Z,21.95
2022-12-01T22:43:51.936Z,23.80
2022-12-01T22:46:35.300Z,20.35
2022-12-01T22:49:22.320Z,24.92
2022-12-01T22:52:09.306Z,24.07
2022-12-01T22:54:43.174Z,21.80
2022-12-01T22:57:21.217Z,21.10
2022-12-01T22:59:48.456Z,22.73
2022-12-01T23:02:30.988Z,21.15
2022-12-01T23:05:12.960Z,28.25
2022-12-01T23:07:42.605Z,25.73
2022-12-01T23:10:29.039Z,23.92
2022-12-01T23:12:59.460Z,23.13
2022-12-01T23:15:38.397Z,21.33
2022-12-01T23:18:28.812Z,24.02
2022-12-01T23:21:02.032Z,24.45
2022-12-01T23:23:31.797Z,23.23
2022-12-01T23:26:01.195Z,25.02
2022-12-01T23:28:29.806Z,24.38
2022-12-01T23:30:59.155Z,30.40
2022-12-01T23:33:29.634Z,21.13
2022-12-01T23:36:04.108Z,24.08
2022-12-01T23:38:41.830Z,25.23
2022-12-01T23:41:25.816Z,28.02
2022-12-01T23:43:55.206Z,32.55
2022-12-01T23:46:25.029Z,26.50
2022-12-01T23:49:22.609Z,27.23
2022-12-01T23:51:54.723Z,26.95
2022-12-01T23:54:26.433Z,29.25
2022-12-01T23:56:58.196Z,30.20
2022-12-01T23:59:25.443Z,30.02
